Fronteira dos Vales, Brazil
Current Conditions -  °F | °C
As of 4:00 AM on Wednesday 22 Oct 2014 (Local Time) from SBPS Reporting Station
Broken Clouds Broken Clouds  
Wind Chill: 72°   Ceiling: 3500
Heat Index: 72°   Visibility: 6mi
Dew Point: 70°   Wind: 3mph
Humidity: 94%   Direction: 240°WSW
Pressure: NA   Gusts: NA
Location:  16.89°S, 40.92°W
Report Text: SBPS 220600Z 24003KT 200V270 9999 FEW003 SCT016 BKN035 22/21 Q1015
Loading
Personal Weather Stations






























Interactive Weather Map
Tropical Storm Tracking
New forecast layout! Learn more

10-Day Weather Forecast

Advertisements
Track Severe Weather on mobile